Time;durP1;ratioP1;P1;durP2;ratioP2;P2;SDS_P1;SDS_P2;PMS_P1;PMS_P2;Temp;Humidity;BMP_temperature;BMP_pressure;BME280_temperature;BME280_humidity;BME280_pressure;Samples;Min_cycle;Max_cycle;Signal;HPM_P1;HPM_P2
2023/08/26 00:00:49;;;;;;;1.58;0.60;;;27.80;67.70;;;;;;6305617;22;20504;-83
2023/08/26 00:03:17;;;;;;;0.57;0.57;;;27.80;67.80;;;;;;6306049;22;20169;-83
2023/08/26 00:05:48;;;;;;;0.40;0.40;;;27.70;67.80;;;;;;6304640;22;20222;-84
2023/08/26 00:08:18;;;;;;;0.55;0.40;;;27.70;67.90;;;;;;6304106;22;20189;-84
2023/08/26 00:10:46;;;;;;;1.13;0.77;;;27.70;68.00;;;;;;6304515;22;20252;-84
2023/08/26 00:13:15;;;;;;;0.55;0.40;;;27.70;68.10;;;;;;6304623;22;20500;-84
2023/08/26 00:15:43;;;;;;;0.80;0.70;;;27.70;68.10;;;;;;6304873;22;20174;-84
2023/08/26 00:18:11;;;;;;;0.75;0.73;;;27.70;68.10;;;;;;6303588;22;20535;-85
2023/08/26 00:20:40;;;;;;;0.80;0.77;;;27.60;68.30;;;;;;6306322;22;20240;-84
2023/08/26 00:23:09;;;;;;;0.40;0.40;;;27.60;68.50;;;;;;6305089;22;20205;-85
2023/08/26 00:25:39;;;;;;;1.10;0.98;;;27.60;68.60;;;;;;6304964;22;20653;-84
2023/08/26 00:28:07;;;;;;;0.40;0.40;;;27.60;68.70;;;;;;6305066;22;20566;-83
2023/08/26 00:30:37;;;;;;;1.13;0.47;;;27.50;68.70;;;;;;6304685;22;20169;-83
2023/08/26 00:33:06;;;;;;;1.23;1.13;;;27.50;68.70;;;;;;6304943;22;20172;-84
2023/08/26 00:35:38;;;;;;;3.78;0.75;;;27.50;68.70;;;;;;6305986;22;20165;-84
2023/08/26 00:38:07;;;;;;;0.82;0.52;;;27.50;68.80;;;;;;6305316;22;20161;-84
2023/08/26 00:40:38;;;;;;;0.68;0.52;;;27.50;68.90;;;;;;6304987;22;20165;-84
2023/08/26 00:43:09;;;;;;;0.55;0.55;;;27.50;69.00;;;;;;6305043;22;20153;-85
2023/08/26 00:45:39;;;;;;;1.38;0.82;;;27.50;69.10;;;;;;6304099;22;20165;-83
2023/08/26 00:48:08;;;;;;;0.60;0.60;;;27.40;69.00;;;;;;6304536;22;20181;-84
2023/08/26 00:50:37;;;;;;;0.98;0.88;;;27.40;69.20;;;;;;6304068;22;20165;-84
2023/08/26 00:53:07;;;;;;;0.82;0.40;;;27.40;69.30;;;;;;6304583;22;20169;-84
2023/08/26 00:55:38;;;;;;;1.67;0.93;;;27.40;69.40;;;;;;6303930;22;20623;-83
2023/08/26 00:58:07;;;;;;;0.63;0.52;;;27.40;69.50;;;;;;6304937;22;20666;-84
2023/08/26 01:00:39;;;;;;;1.35;0.95;;;27.40;69.50;;;;;;6305131;22;20160;-85
2023/08/26 01:03:12;;;;;;;3.35;1.05;;;27.40;69.70;;;;;;6305312;22;20606;-85
2023/08/26 01:05:41;;;;;;;0.75;0.63;;;27.40;69.90;;;;;;6304956;22;20652;-85
2023/08/26 01:08:10;;;;;;;6.97;2.47;;;27.40;70.10;;;;;;6305255;22;20536;-83
2023/08/26 01:10:53;;;;;;;0.38;0.38;;;27.40;70.20;;;;;;6305235;22;20685;-84
2023/08/26 01:13:28;;;;;;;0.90;0.60;;;27.40;70.30;;;;;;6304907;22;20164;-84
2023/08/26 01:16:00;;;;;;;1.02;0.70;;;27.30;70.30;;;;;;6304547;22;20683;-84
2023/08/26 01:18:28;;;;;;;1.40;1.15;;;27.30;70.40;;;;;;6304307;22;20158;-83
2023/08/26 01:20:58;;;;;;;0.43;0.43;;;27.20;70.50;;;;;;6305439;22;20227;-83
2023/08/26 01:23:48;;;;;;;0.50;0.50;;;27.30;70.60;;;;;;6304897;22;20169;-84
2023/08/26 01:26:17;;;;;;;4.10;1.08;;;27.20;71.00;;;;;;6295865;22;20173;-84
2023/08/26 01:28:45;;;;;;;1.27;0.70;;;27.20;71.40;;;;;;6304159;22;20283;-83
2023/08/26 01:31:15;;;;;;;3.60;1.88;;;27.20;71.90;;;;;;6304343;22;20903;-84
2023/08/26 01:33:49;;;;;;;1.13;0.90;;;27.10;71.60;;;;;;6303920;22;20620;-82
2023/08/26 01:36:20;;;;;;;2.28;1.30;;;27.10;71.70;;;;;;6303812;22;20189;-82
2023/08/26 01:38:51;;;;;;;0.98;0.77;;;27.10;71.90;;;;;;6305395;22;20154;-84
2023/08/26 01:41:21;;;;;;;0.75;0.73;;;27.10;72.20;;;;;;6303034;22;20172;-83
2023/08/26 01:43:52;;;;;;;1.38;1.25;;;27.10;72.40;;;;;;6303427;22;20571;-83
2023/08/26 01:46:35;;;;;;;1.38;0.65;;;27.10;72.40;;;;;;6303745;22;20602;-83
2023/08/26 01:49:03;;;;;;;0.80;0.50;;;27.00;72.50;;;;;;6304141;22;20181;-83
2023/08/26 01:51:32;;;;;;;1.30;1.20;;;27.00;72.70;;;;;;6303933;22;20184;-84
2023/08/26 01:54:02;;;;;;;0.90;0.50;;;27.00;73.20;;;;;;6304908;22;20183;-82
2023/08/26 01:56:30;;;;;;;0.70;0.70;;;27.00;73.30;;;;;;6304025;22;20176;-83
2023/08/26 01:58:58;;;;;;;1.85;0.85;;;26.90;73.40;;;;;;6303682;22;20177;-83
2023/08/26 02:01:26;;;;;;;0.70;0.50;;;26.90;73.30;;;;;;6303845;22;20165;-84
2023/08/26 02:03:57;;;;;;;2.35;1.40;;;26.90;73.60;;;;;;6304237;22;20326;-83
2023/08/26 02:06:25;;;;;;;0.45;0.40;;;26.90;73.80;;;;;;6305392;22;20500;-83
2023/08/26 02:08:54;;;;;;;2.25;1.08;;;26.90;74.00;;;;;;6304035;22;20276;-84
2023/08/26 02:11:26;;;;;;;2.92;1.00;;;26.80;74.10;;;;;;6304481;22;20171;-84
2023/08/26 02:13:54;;;;;;;1.15;1.05;;;26.80;74.30;;;;;;6303112;22;20160;-83
2023/08/26 02:16:23;;;;;;;2.42;1.60;;;26.80;74.50;;;;;;6305492;22;20169;-84
2023/08/26 02:18:52;;;;;;;0.75;0.68;;;26.80;75.00;;;;;;6304253;22;20691;-83
2023/08/26 02:21:20;;;;;;;2.35;0.77;;;26.70;75.00;;;;;;6303256;22;20161;-83
2023/08/26 02:23:49;;;;;;;1.13;0.95;;;26.70;74.70;;;;;;6304082;22;20610;-81
2023/08/26 02:26:17;;;;;;;1.48;0.55;;;26.70;75.00;;;;;;6303201;22;20165;-83
2023/08/26 02:28:47;;;;;;;2.60;1.02;;;26.70;75.10;;;;;;6301785;22;20161;-84
2023/08/26 02:31:15;;;;;;;0.82;0.68;;;26.70;75.10;;;;;;6303980;22;20165;-84
2023/08/26 02:33:44;;;;;;;0.85;0.73;;;26.70;75.10;;;;;;6303393;22;20189;-83
2023/08/26 02:36:12;;;;;;;1.25;1.15;;;26.60;75.10;;;;;;6303061;22;20189;-82
2023/08/26 02:38:41;;;;;;;1.13;0.60;;;26.60;75.30;;;;;;6302470;22;20169;-84
2023/08/26 02:41:09;;;;;;;4.20;1.02;;;26.60;75.40;;;;;;6303040;22;20165;-83
2023/08/26 02:43:38;;;;;;;0.98;0.98;;;26.60;75.50;;;;;;6303300;22;20175;-82
2023/08/26 02:46:07;;;;;;;0.50;0.50;;;26.60;75.60;;;;;;6303319;22;20183;-83
2023/08/26 02:48:36;;;;;;;1.02;0.95;;;26.60;75.60;;;;;;6304236;22;20177;-83
2023/08/26 02:51:04;;;;;;;0.98;0.75;;;26.50;75.50;;;;;;6304471;22;20248;-84
2023/08/26 02:53:32;;;;;;;0.65;0.65;;;26.50;75.50;;;;;;6303739;22;20161;-83
2023/08/26 02:56:01;;;;;;;1.00;0.90;;;26.50;75.60;;;;;;6304233;22;20207;-82
2023/08/26 02:58:29;;;;;;;2.05;1.23;;;26.50;75.40;;;;;;6302795;22;20175;-82
2023/08/26 03:01:01;;;;;;;0.60;0.60;;;26.50;75.50;;;;;;6302867;22;20169;-82
2023/08/26 03:03:31;;;;;;;0.40;0.40;;;26.50;75.40;;;;;;6304756;22;20161;-82
2023/08/26 03:06:00;;;;;;;1.10;0.70;;;26.50;75.60;;;;;;6303046;22;20474;-83
2023/08/26 03:08:31;;;;;;;0.70;0.70;;;26.50;76.00;;;;;;6303466;22;20180;-85
2023/08/26 03:11:02;;;;;;;1.70;1.05;;;26.50;75.90;;;;;;6303065;22;20189;-84
2023/08/26 03:13:31;;;;;;;0.70;0.70;;;26.50;75.90;;;;;;6302553;22;20219;-83
2023/08/26 03:16:07;;;;;;;1.58;0.95;;;26.50;75.90;;;;;;6304026;22;20153;-82
2023/08/26 03:18:39;;;;;;;2.15;0.82;;;26.40;75.80;;;;;;6303192;22;20222;-83
2023/08/26 03:21:09;;;;;;;5.45;1.17;;;26.40;75.70;;;;;;6302560;22;20177;-84
2023/08/26 03:23:37;;;;;;;0.95;0.60;;;26.40;75.90;;;;;;6303915;22;20227;-84
2023/08/26 03:26:06;;;;;;;2.55;1.33;;;26.40;76.10;;;;;;6303459;22;20215;-83
2023/08/26 03:28:35;;;;;;;0.35;0.32;;;26.40;76.40;;;;;;6303334;22;20169;-82
2023/08/26 03:31:05;;;;;;;1.20;0.82;;;26.40;76.70;;;;;;6277130;22;20193;-83
2023/08/26 03:33:37;;;;;;;1.02;0.73;;;26.40;77.00;;;;;;6304700;22;20236;-83
2023/08/26 03:36:07;;;;;;;0.80;0.80;;;26.40;76.80;;;;;;6301816;22;20189;-83
2023/08/26 03:38:36;;;;;;;5.72;0.82;;;26.30;76.60;;;;;;6303174;22;20244;-82
2023/08/26 03:41:04;;;;;;;0.50;0.50;;;26.30;76.60;;;;;;6302472;22;20173;-83
2023/08/26 03:43:34;;;;;;;1.35;0.90;;;26.30;76.90;;;;;;6302232;22;20171;-82
2023/08/26 03:46:03;;;;;;;1.60;1.05;;;26.30;76.90;;;;;;6302987;22;20165;-81
2023/08/26 03:48:32;;;;;;;0.93;0.82;;;26.30;76.90;;;;;;6305628;22;20169;-83
2023/08/26 03:51:02;;;;;;;4.07;1.33;;;26.30;76.90;;;;;;6275939;22;20193;-81
2023/08/26 03:53:32;;;;;;;3.22;1.40;;;26.30;76.90;;;;;;6307458;22;20171;-83
2023/08/26 03:56:04;;;;;;;0.90;0.90;;;26.30;76.90;;;;;;6304924;22;20387;-83
2023/08/26 03:58:32;;;;;;;0.40;0.40;;;26.30;77.00;;;;;;6303689;22;20158;-84
2023/08/26 04:01:02;;;;;;;1.52;1.30;;;26.30;76.90;;;;;;6304844;22;20161;-82
2023/08/26 04:03:30;;;;;;;1.00;0.90;;;26.30;77.10;;;;;;6305171;22;20192;-83
2023/08/26 04:06:00;;;;;;;0.80;0.80;;;26.30;77.20;;;;;;6305263;22;20635;-82
2023/08/26 04:08:31;;;;;;;1.52;1.17;;;26.30;77.70;;;;;;6306291;22;20210;-84
2023/08/26 04:11:02;;;;;;;0.85;0.70;;;26.30;77.50;;;;;;6303085;22;20715;-83
2023/08/26 04:13:30;;;;;;;1.33;0.98;;;26.30;77.70;;;;;;6304833;22;20161;-84
2023/08/26 04:16:02;;;;;;;0.65;0.65;;;26.30;77.70;;;;;;6303161;22;20211;-84
2023/08/26 04:18:31;;;;;;;0.75;0.68;;;26.30;77.60;;;;;;6305292;22;20164;-82
2023/08/26 04:21:00;;;;;;;2.13;0.85;;;26.30;77.70;;;;;;6305765;22;20165;-83
2023/08/26 04:23:30;;;;;;;1.02;0.77;;;26.30;77.80;;;;;;6303699;22;20244;-83
2023/08/26 04:26:00;;;;;;;1.48;1.00;;;26.30;78.30;;;;;;6302824;22;20199;-83
2023/08/26 04:28:29;;;;;;;1.33;1.10;;;26.30;78.60;;;;;;6306017;22;20230;-83
2023/08/26 04:30:59;;;;;;;0.85;0.85;;;26.30;78.70;;;;;;6303593;22;20254;-83
2023/08/26 04:33:27;;;;;;;0.70;0.47;;;26.30;79.10;;;;;;6304968;22;20192;-83
2023/08/26 04:35:59;;;;;;;2.15;1.13;;;26.30;79.20;;;;;;6303217;22;20319;-82
2023/08/26 04:38:31;;;;;;;0.93;0.93;;;26.30;79.70;;;;;;6303584;22;20617;-83
2023/08/26 04:41:00;;;;;;;0.90;0.75;;;26.30;79.90;;;;;;6305058;22;20161;-83
2023/08/26 04:43:29;;;;;;;0.73;0.73;;;26.40;79.80;;;;;;6304080;22;20165;-82
2023/08/26 04:45:58;;;;;;;1.48;0.73;;;26.40;80.20;;;;;;6302200;22;20169;-85
2023/08/26 04:48:29;;;;;;;2.28;1.25;;;26.40;80.10;;;;;;6304302;22;20175;-82
2023/08/26 04:50:58;;;;;;;1.48;1.35;;;26.40;80.50;;;;;;6305455;22;20181;-83
2023/08/26 04:53:26;;;;;;;0.80;0.80;;;26.40;80.70;;;;;;6304507;22;20625;-83
2023/08/26 04:55:56;;;;;;;1.48;1.13;;;26.40;80.70;;;;;;6304371;22;20166;-83
2023/08/26 04:58:25;;;;;;;2.75;1.20;;;26.40;80.80;;;;;;6303671;22;20201;-84
2023/08/26 05:00:56;;;;;;;0.65;0.52;;;26.40;80.50;;;;;;6303697;22;20638;-82
2023/08/26 05:03:25;;;;;;;1.33;1.20;;;26.50;80.40;;;;;;6305323;22;20153;-84
2023/08/26 05:05:53;;;;;;;1.17;1.08;;;26.50;80.20;;;;;;6304778;22;20516;-84
2023/08/26 05:08:21;;;;;;;1.15;0.82;;;26.50;80.20;;;;;;6303381;22;20165;-84
2023/08/26 05:10:50;;;;;;;0.80;0.80;;;26.60;80.40;;;;;;6304481;22;20200;-83
2023/08/26 05:13:20;;;;;;;2.72;1.08;;;26.70;80.20;;;;;;6304964;22;20251;-83
2023/08/26 05:15:57;;;;;;;1.35;1.05;;;26.70;80.10;;;;;;6304712;22;20157;-83
2023/08/26 05:18:42;;;;;;;4.05;1.30;;;26.70;80.40;;;;;;6306579;22;20165;-85
2023/08/26 05:21:19;;;;;;;0.82;0.70;;;26.80;80.50;;;;;;6304241;22;20676;-91
2023/08/26 05:23:50;;;;;;;0.88;0.88;;;26.80;80.20;;;;;;6304527;22;20165;-84
2023/08/26 05:26:18;;;;;;;1.08;0.70;;;26.90;80.00;;;;;;6304976;22;20172;-84
2023/08/26 05:28:48;;;;;;;0.75;0.75;;;26.90;79.80;;;;;;6305277;22;20211;-85
2023/08/26 05:31:17;;;;;;;1.40;1.20;;;27.00;79.80;;;;;;6303517;22;20526;-85
2023/08/26 05:33:46;;;;;;;1.65;0.90;;;27.00;79.80;;;;;;6304150;22;20172;-84
2023/08/26 05:36:14;;;;;;;1.73;1.30;;;27.10;79.60;;;;;;6307942;22;20200;-83
2023/08/26 05:38:47;;;;;;;1.10;0.98;;;27.10;79.50;;;;;;6302489;22;20184;-83
2023/08/26 05:41:31;;;;;;;3.03;1.45;;;27.20;79.40;;;;;;6307227;22;20157;-83
2023/08/26 05:44:08;;;;;;;2.30;1.27;;;27.30;79.40;;;;;;6303476;22;20153;-85
2023/08/26 05:46:36;;;;;;;1.15;1.00;;;27.30;79.40;;;;;;6305386;22;20496;-84
2023/08/26 05:49:05;;;;;;;0.55;0.55;;;27.40;79.10;;;;;;6304172;22;20676;-83
2023/08/26 05:51:33;;;;;;;1.33;0.88;;;27.40;79.00;;;;;;6303864;22;20189;-83
2023/08/26 05:54:02;;;;;;;0.85;0.80;;;27.50;78.90;;;;;;6303722;22;20466;-83
2023/08/26 05:56:30;;;;;;;0.38;0.38;;;27.50;78.80;;;;;;6305626;22;20467;-81
2023/08/26 05:58:58;;;;;;;2.95;0.90;;;27.60;78.80;;;;;;6302218;22;20501;-83
2023/08/26 06:01:28;;;;;;;0.93;0.68;;;27.70;78.70;;;;;;6304904;22;20630;-84
2023/08/26 06:03:58;;;;;;;1.33;0.90;;;27.70;78.50;;;;;;6304315;22;20191;-85
2023/08/26 06:06:28;;;;;;;0.98;0.85;;;27.70;78.30;;;;;;6305208;22;20201;-83
2023/08/26 06:08:57;;;;;;;0.90;0.77;;;27.80;78.20;;;;;;6304824;22;20191;-83
2023/08/26 06:11:26;;;;;;;2.17;0.98;;;27.90;78.10;;;;;;6305403;22;20200;-83
2023/08/26 06:13:58;;;;;;;1.00;0.85;;;28.00;77.90;;;;;;6305861;22;20199;-82
2023/08/26 06:16:27;;;;;;;0.85;0.82;;;28.00;77.70;;;;;;6305237;22;20165;-84
2023/08/26 06:18:59;;;;;;;1.15;0.65;;;28.10;77.70;;;;;;6299138;22;20163;-85
2023/08/26 06:21:27;;;;;;;2.65;1.00;;;28.10;77.50;;;;;;6303954;22;20618;-81
2023/08/26 06:23:58;;;;;;;1.75;1.10;;;28.20;77.40;;;;;;6304963;22;20641;-81
2023/08/26 06:26:29;;;;;;;0.60;0.60;;;28.30;77.20;;;;;;6302649;22;20192;-84
2023/08/26 06:28:58;;;;;;;1.63;0.95;;;28.30;76.90;;;;;;6303370;22;20240;-84
2023/08/26 06:31:28;;;;;;;1.60;0.70;;;28.40;76.90;;;;;;6304237;22;20200;-82
2023/08/26 06:33:58;;;;;;;1.08;0.98;;;28.50;76.80;;;;;;6304732;22;20232;-85
2023/08/26 06:36:26;;;;;;;2.90;1.38;;;28.60;76.70;;;;;;6305844;22;20188;-84
2023/08/26 06:38:55;;;;;;;1.00;0.75;;;28.60;76.60;;;;;;6303935;22;20869;-83
2023/08/26 06:41:23;;;;;;;1.05;0.93;;;28.70;76.50;;;;;;6305086;22;20252;-82
2023/08/26 06:44:01;;;;;;;11.95;2.13;;;28.80;76.30;;;;;;6303670;22;20660;-81
2023/08/26 06:46:30;;;;;;;1.92;1.75;;;28.80;75.90;;;;;;6304983;22;20164;-82
2023/08/26 06:48:59;;;;;;;0.82;0.70;;;29.00;75.80;;;;;;6304112;22;20165;-81
2023/08/26 06:51:27;;;;;;;1.13;0.73;;;29.00;75.50;;;;;;6303614;22;20189;-82
2023/08/26 06:53:56;;;;;;;0.82;0.70;;;29.10;75.40;;;;;;6304634;22;20492;-82
2023/08/26 06:56:25;;;;;;;3.10;0.68;;;29.10;75.10;;;;;;6304478;22;20176;-82
2023/08/26 06:58:53;;;;;;;12.55;0.73;;;29.20;75.10;;;;;;6301470;22;20169;-82
2023/08/26 07:01:22;;;;;;;0.98;0.95;;;29.30;74.70;;;;;;6302352;22;20171;-83
2023/08/26 07:03:53;;;;;;;0.70;0.68;;;29.30;74.30;;;;;;6303562;22;20201;-83
2023/08/26 07:06:24;;;;;;;1.10;0.88;;;29.40;74.40;;;;;;6304519;22;20157;-84
2023/08/26 07:08:53;;;;;;;1.55;0.90;;;29.50;74.40;;;;;;6304410;22;20160;-84
2023/08/26 07:11:22;;;;;;;1.15;1.05;;;29.60;74.40;;;;;;6276647;22;20200;-82
2023/08/26 07:13:50;;;;;;;2.95;1.40;;;29.60;74.00;;;;;;6304930;22;20173;-84
2023/08/26 07:16:19;;;;;;;1.58;0.82;;;29.70;73.90;;;;;;6304006;22;20225;-83
2023/08/26 07:18:52;;;;;;;1.63;0.85;;;29.80;73.70;;;;;;6305751;22;20172;-86
2023/08/26 07:21:20;;;;;;;0.57;0.57;;;29.90;73.60;;;;;;6306900;22;20612;-84
2023/08/26 07:23:49;;;;;;;0.65;0.50;;;29.90;73.50;;;;;;6306966;22;20161;-83
2023/08/26 07:26:24;;;;;;;1.13;1.02;;;29.90;73.30;;;;;;6306793;22;20170;-82
2023/08/26 07:28:53;;;;;;;0.98;0.73;;;30.00;73.20;;;;;;6307354;22;20226;-84
2023/08/26 07:31:21;;;;;;;2.25;1.00;;;30.10;73.00;;;;;;6307562;22;20176;-91
2023/08/26 07:33:52;;;;;;;1.25;1.15;;;30.10;72.80;;;;;;6306633;22;20699;-84
2023/08/26 07:36:20;;;;;;;1.52;1.10;;;30.20;72.40;;;;;;6307548;22;20189;-87
2023/08/26 07:38:48;;;;;;;1.35;1.17;;;30.20;71.40;;;;;;6307810;22;20213;-86
2023/08/26 07:41:18;;;;;;;2.60;1.10;;;30.30;71.10;;;;;;6311446;22;20176;-90
2023/08/26 07:43:47;;;;;;;1.85;1.70;;;30.30;71.10;;;;;;6309689;22;20168;-89
2023/08/26 07:46:18;;;;;;;0.93;0.90;;;30.40;71.10;;;;;;6305658;22;20208;-87
2023/08/26 07:49:09;;;;;;;1.60;0.88;;;30.50;71.10;;;;;;6308561;22;20152;-93
2023/08/26 07:52:11;;;;;;;0.52;0.50;;;30.50;71.00;;;;;;6342136;22;20191;-93
2023/08/26 07:57:45;;;;;;;1.15;1.05;;;30.70;69.90;;;;;;6337978;22;20664;-84
2023/08/26 08:00:14;;;;;;;1.40;1.05;;;30.80;69.90;;;;;;6332961;22;20247;-85
2023/08/26 08:02:49;;;;;;;1.40;1.17;;;30.80;69.50;;;;;;6311589;22;20149;-85
2023/08/26 08:05:31;;;;;;;1.35;1.25;;;30.80;68.90;;;;;;6333212;22;20161;-90
2023/08/26 08:08:00;;;;;;;0.85;0.65;;;30.90;69.00;;;;;;6333840;22;20167;-84
2023/08/26 08:10:29;;;;;;;1.20;0.68;;;31.00;69.10;;;;;;6307656;22;20169;-86
2023/08/26 08:12:57;;;;;;;1.00;1.00;;;31.10;69.10;;;;;;6335924;22;20192;-86
2023/08/26 08:15:26;;;;;;;1.90;1.27;;;31.10;68.90;;;;;;6336479;22;20167;-86
2023/08/26 08:17:58;;;;;;;0.52;0.40;;;31.20;68.90;;;;;;6336567;22;20230;-84
2023/08/26 08:20:27;;;;;;;1.55;1.10;;;31.20;68.80;;;;;;6337051;22;20160;-85
2023/08/26 08:22:57;;;;;;;0.80;0.80;;;31.30;68.60;;;;;;6337807;22;20716;-85
2023/08/26 08:25:26;;;;;;;1.55;0.80;;;31.40;68.60;;;;;;6336375;22;20427;-85
2023/08/26 08:27:54;;;;;;;0.80;0.80;;;31.40;67.70;;;;;;6336787;22;20203;-84
2023/08/26 08:30:23;;;;;;;1.38;0.80;;;31.50;67.30;;;;;;6335516;22;20191;-85
2023/08/26 08:32:52;;;;;;;1.25;0.93;;;31.50;67.00;;;;;;6336277;22;20192;-84
2023/08/26 08:35:20;;;;;;;1.00;0.95;;;31.60;67.10;;;;;;6335861;22;20168;-83
2023/08/26 08:37:49;;;;;;;1.75;1.05;;;31.70;67.10;;;;;;6336464;22;20168;-84
2023/08/26 08:40:20;;;;;;;1.65;1.27;;;31.70;66.80;;;;;;6335939;22;20169;-86
2023/08/26 08:43:02;;;;;;;1.02;0.73;;;31.80;66.70;;;;;;6338892;22;20419;-87
2023/08/26 08:45:32;;;;;;;1.23;1.02;;;31.90;66.70;;;;;;6339500;22;20626;-85
2023/08/26 09:01:10;;;;;;;0.85;0.57;;;32.20;65.60;;;;;;6330859;22;20191;-90
2023/08/26 09:03:49;;;;;;;0.45;0.45;;;32.30;65.50;;;;;;6340834;22;20192;-89
2023/08/26 09:06:23;;;;;;;0.88;0.80;;;32.30;64.90;;;;;;6340067;22;20510;-92
2023/08/26 09:08:52;;;;;;;0.88;0.88;;;32.40;64.40;;;;;;6338553;22;20538;-89
2023/08/26 09:11:29;;;;;;;1.85;1.17;;;32.50;64.40;;;;;;6339122;22;20488;-89
2023/08/26 09:14:03;;;;;;;1.25;1.13;;;32.50;64.10;;;;;;6312337;22;20184;-87
2023/08/26 09:16:37;;;;;;;1.38;1.20;;;32.60;63.10;;;;;;6339434;22;20211;-92
2023/08/26 09:19:52;;;;;;;2.20;0.95;;;32.70;62.90;;;;;;6338745;22;20160;-90
2023/08/26 09:22:50;;;;;;;1.17;0.88;;;32.70;63.00;;;;;;6095273;23;20260;-89
2023/08/26 09:25:21;;;;;;;1.00;0.80;;;32.80;63.20;;;;;;6305980;22;20165;-91
2023/08/26 09:27:52;;;;;;;0.70;0.70;;;32.80;62.60;;;;;;6339843;22;20168;-92
2023/08/26 09:53:34;;;;;;;0.60;0.60;;;33.40;61.20;;;;;;6320141;22;20218;-91
2023/08/26 09:58:59;;;;;;;1.00;0.77;;;33.60;60.30;;;;;;6338380;22;20200;-93
2023/08/26 10:02:31;;;;;;;1.83;1.38;;;33.60;59.80;;;;;;6339026;22;20166;-91
2023/08/26 10:12:47;;;;;;;1.52;0.85;;;33.90;59.40;;;;;;6090053;23;20253;-90
2023/08/26 10:15:51;;;;;;;2.03;1.15;;;33.90;59.00;;;;;;6121817;23;20172;-93
2023/08/26 10:18:45;;;;;;;0.77;0.68;;;34.00;58.80;;;;;;6141580;23;20227;-88
2023/08/26 10:21:45;;;;;;;;;;;;;;;;;;;;;
2023/08/26 10:24:31;;;;;;;1.08;0.95;;;34.20;57.40;;;;;;6337610;22;20203;-90
2023/08/26 10:27:16;;;;;;;0.88;0.73;;;34.20;56.30;;;;;;6300142;22;20169;-88
2023/08/26 11:02:23;;;;;;;2.40;1.42;;;35.00;54.40;;;;;;6336145;22;20677;-87
2023/08/26 11:04:52;;;;;;;0.70;0.57;;;35.10;54.10;;;;;;6337463;22;20196;-84
2023/08/26 11:07:21;;;;;;;1.08;0.95;;;35.20;53.80;;;;;;6335976;22;20204;-86
2023/08/26 11:10:27;;;;;;;2.45;0.80;;;35.20;53.70;;;;;;6336333;22;20178;-90
2023/08/26 13:24:31;;;;;;;2.22;1.00;;;36.50;47.40;;;;;;6271770;22;20776;-86
2023/08/26 13:26:59;;;;;;;1.10;1.02;;;36.60;46.90;;;;;;6273409;22;20174;-87
2023/08/26 13:29:28;;;;;;;0.80;0.80;;;36.60;46.60;;;;;;6272713;22;20635;-87
2023/08/26 13:31:58;;;;;;;1.15;0.70;;;36.60;46.90;;;;;;6272187;22;20642;-86
2023/08/26 13:34:26;;;;;;;0.35;0.35;;;36.70;47.10;;;;;;6272507;22;20196;-89
2023/08/26 13:36:58;;;;;;;0.80;0.68;;;36.70;46.90;;;;;;6272715;22;20161;-87
2023/08/26 13:39:26;;;;;;;1.48;1.38;;;36.80;46.70;;;;;;6274936;22;20228;-87
2023/08/26 13:41:56;;;;;;;1.08;0.95;;;36.90;46.90;;;;;;6274766;22;20169;-85
2023/08/26 13:44:25;;;;;;;0.50;0.40;;;37.00;47.00;;;;;;6272392;22;20265;-87
2023/08/26 13:46:53;;;;;;;1.45;1.00;;;37.00;47.20;;;;;;6273013;22;20169;-86
2023/08/26 13:49:22;;;;;;;1.23;0.57;;;37.10;46.80;;;;;;6274225;22;20162;-88
2023/08/26 13:51:57;;;;;;;1.20;0.82;;;37.10;46.80;;;;;;6270954;22;20472;-88
2023/08/26 13:54:25;;;;;;;1.30;1.20;;;37.20;46.80;;;;;;6272174;22;20215;-85
2023/08/26 13:56:54;;;;;;;1.00;0.60;;;37.20;46.50;;;;;;6273099;22;20176;-90
2023/08/26 13:59:30;;;;;;;0.70;0.70;;;37.20;46.60;;;;;;6272514;22;20172;-87
2023/08/26 14:02:06;;;;;;;0.70;0.68;;;37.20;46.70;;;;;;6272696;22;20169;-90
2023/08/26 14:04:44;;;;;;;1.60;1.33;;;37.40;46.10;;;;;;6289926;22;20204;-90
2023/08/26 14:07:15;;;;;;;0.60;0.57;;;37.40;45.80;;;;;;6277549;22;20157;-88
2023/08/26 14:10:04;;;;;;;0.50;0.50;;;37.40;45.50;;;;;;6302756;22;20164;-88
2023/08/26 14:12:34;;;;;;;0.35;0.30;;;37.60;45.70;;;;;;6303665;22;20171;-86
2023/08/26 14:15:05;;;;;;;1.08;0.93;;;38.20;45.70;;;;;;6289438;22;20664;-87
2023/08/26 15:03:51;;;;;;;0.45;0.45;;;38.20;44.20;;;;;;6297540;22;20251;31
2023/08/26 15:06:30;;;;;;;3.92;0.63;;;38.10;44.40;;;;;;6300887;22;20643;-89
2023/08/26 15:08:59;;;;;;;2.65;1.48;;;38.20;44.40;;;;;;6301455;22;20149;-87
2023/08/26 15:11:29;;;;;;;0.43;0.43;;;38.70;43.90;;;;;;6301482;22;20226;-88
2023/08/26 15:14:01;;;;;;;0.38;0.38;;;38.70;44.00;;;;;;6302031;22;20250;-86
2023/08/26 15:16:33;;;;;;;0.82;0.73;;;38.50;44.10;;;;;;6302758;22;20172;-87
2023/08/26 15:19:15;;;;;;;0.40;0.40;;;38.50;44.20;;;;;;6303081;22;20353;-85
2023/08/26 15:22:03;;;;;;;1.00;0.95;;;38.30;43.40;;;;;;6302526;22;20494;-88
2023/08/26 15:38:21;;;;;;;3.70;0.40;;;37.50;43.80;;;;;;6227166;22;20246;-90
2023/08/26 15:41:09;;;;;;;1.48;0.82;;;37.30;44.00;;;;;;6332671;22;20159;-88
2023/08/26 15:43:40;;;;;;;0.93;0.60;;;37.20;44.30;;;;;;6335249;22;20157;-87
2023/08/26 15:46:13;;;;;;;3.65;0.93;;;37.00;44.20;;;;;;6336784;22;20183;-88
2023/08/26 16:32:03;;;;;;;0.60;0.60;;;35.60;46.50;;;;;;6331963;22;20571;-87
2023/08/26 16:34:34;;;;;;;0.40;0.40;;;35.60;46.60;;;;;;6305201;22;20192;-88
2023/08/26 16:37:51;;;;;;;;;;;;;;;;;;;;;
2023/08/26 16:40:24;;;;;;;0.50;0.50;;;35.50;46.90;;;;;;6299331;22;20161;-86
2023/08/26 16:42:52;;;;;;;0.65;0.45;;;35.30;46.90;;;;;;6304692;22;20168;-88
2023/08/26 16:45:21;;;;;;;0.30;0.30;;;35.30;47.00;;;;;;6302069;22;20165;-88
2023/08/26 16:47:50;;;;;;;0.73;0.50;;;35.20;47.00;;;;;;6303273;22;20161;-88
2023/08/26 16:50:19;;;;;;;0.40;0.40;;;35.20;47.20;;;;;;6304518;22;20227;-87
2023/08/26 16:59:59;;;;;;;0.70;0.70;;;34.90;47.50;;;;;;6306686;22;20535;-92
2023/08/26 17:03:07;;;;;;;0.73;0.55;;;34.80;47.60;;;;;;6226939;23;20320;-91
2023/08/26 17:06:05;;;;;;;0.80;0.70;;;34.70;47.70;;;;;;6222338;22;20494;-91
2023/08/26 20:27:24;;;;;;;0.82;0.57;;;30.70;55.00;;;;;;6347092;22;20181;-85
2023/08/26 20:30:07;;;;;;;1.38;1.15;;;30.70;55.20;;;;;;6365194;22;20164;-88
2023/08/26 20:32:36;;;;;;;1.23;0.63;;;30.70;55.30;;;;;;6366286;22;20167;-86
2023/08/26 20:35:10;;;;;;;0.98;0.75;;;30.60;55.20;;;;;;6353260;22;20195;-87
2023/08/26 20:37:44;;;;;;;0.47;0.47;;;30.60;55.40;;;;;;6366053;22;20183;-88
2023/08/26 20:40:26;;;;;;;2.20;0.73;;;30.50;55.30;;;;;;6366977;22;20500;-88
2023/08/26 20:42:59;;;;;;;0.57;0.57;;;30.50;55.40;;;;;;6367471;22;20172;-88
2023/08/26 20:45:28;;;;;;;2.10;1.13;;;30.50;55.50;;;;;;6366465;22;20163;-86
2023/08/26 20:47:56;;;;;;;3.65;1.40;;;30.40;55.50;;;;;;6368391;22;20164;-89
2023/08/26 20:50:25;;;;;;;0.50;0.50;;;30.40;55.50;;;;;;6367274;22;20245;-89
2023/08/26 20:52:57;;;;;;;0.38;0.38;;;30.40;55.50;;;;;;6368411;22;20166;-90
2023/08/26 20:55:33;;;;;;;0.35;0.35;;;30.40;55.50;;;;;;6365735;22;20183;-87
2023/08/26 20:58:15;;;;;;;1.58;0.70;;;30.30;55.60;;;;;;6367003;22;20560;-87
2023/08/26 21:00:43;;;;;;;0.50;0.50;;;30.20;55.70;;;;;;6366122;22;20223;-87
2023/08/26 21:03:17;;;;;;;0.30;0.30;;;30.20;55.70;;;;;;6367223;22;20159;-89
2023/08/26 21:05:50;;;;;;;0.50;0.40;;;30.20;55.70;;;;;;6367397;22;20221;-88
2023/08/26 21:08:18;;;;;;;1.48;0.95;;;30.20;55.80;;;;;;6367217;22;20275;-87
2023/08/26 21:10:55;;;;;;;0.55;0.55;;;30.10;55.90;;;;;;6366547;22;20254;-90
2023/08/26 21:13:25;;;;;;;0.40;0.40;;;30.10;56.00;;;;;;6367570;22;20156;-86
2023/08/26 21:15:55;;;;;;;0.70;0.50;;;30.00;56.00;;;;;;6367165;22;20266;-90
2023/08/26 21:18:24;;;;;;;0.93;0.73;;;30.00;56.00;;;;;;6368056;22;20166;-88
2023/08/26 21:20:53;;;;;;;1.05;0.65;;;30.00;56.10;;;;;;6367502;22;20515;-89
2023/08/26 21:23:21;;;;;;;0.98;0.77;;;30.00;56.20;;;;;;6368100;22;20164;-88
2023/08/26 21:25:51;;;;;;;1.05;0.70;;;29.90;56.10;;;;;;6366844;22;20692;-87
2023/08/26 21:28:24;;;;;;;0.50;0.40;;;29.90;56.30;;;;;;6367264;22;20199;-88
2023/08/26 21:30:55;;;;;;;0.90;0.40;;;29.80;56.30;;;;;;6368298;22;20164;-89
2023/08/26 21:33:26;;;;;;;0.77;0.52;;;29.80;56.40;;;;;;6367391;22;20615;-89
2023/08/26 21:35:55;;;;;;;0.57;0.47;;;29.70;56.40;;;;;;6366315;22;20188;-87
2023/08/26 21:38:27;;;;;;;0.30;0.30;;;29.70;56.40;;;;;;6366684;22;20160;-90
2023/08/26 21:40:56;;;;;;;0.70;0.70;;;29.70;56.40;;;;;;6366647;22;20171;-89
2023/08/26 21:43:25;;;;;;;0.52;0.40;;;29.70;56.50;;;;;;6367011;22;20191;-88
2023/08/26 21:46:00;;;;;;;0.40;0.40;;;29.60;56.50;;;;;;6367243;22;20537;-89
2023/08/26 21:48:31;;;;;;;0.50;0.50;;;29.60;56.60;;;;;;6366019;22;20167;-90
2023/08/26 21:50:59;;;;;;;0.73;0.70;;;29.60;56.70;;;;;;6366335;22;20191;-88
2023/08/26 21:53:28;;;;;;;1.02;0.73;;;29.50;56.60;;;;;;6366957;22;20539;-89
2023/08/26 21:55:56;;;;;;;1.30;0.60;;;29.50;56.80;;;;;;6366649;22;20266;-90